Time;durP1;ratioP1;P1;durP2;ratioP2;P2;SDS_P1;SDS_P2;PMS_P1;PMS_P2;Temp;Humidity;BMP_temperature;BMP_pressure;BME280_temperature;BME280_humidity;BME280_pressure;Samples;Min_cycle;Max_cycle;Signal;HPM_P1;HPM_P2
2021/03/05 00:00:14;;;;;;;39.10;14.90;;;2.70;97.30;;;;;;5021576;28;20419;-82
2021/03/05 00:02:40;;;;;;;40.40;16.00;;;2.70;97.30;;;;;;5023076;28;20411;-80
2021/03/05 00:05:07;;;;;;;41.50;15.13;;;2.70;97.30;;;;;;5021795;28;20436;-81
2021/03/05 00:07:33;;;;;;;42.30;15.80;;;2.70;97.30;;;;;;5023443;28;20207;-80
2021/03/05 00:09:58;;;;;;;47.97;18.03;;;2.70;97.30;;;;;;5022461;28;20448;-80
2021/03/05 00:12:24;;;;;;;40.40;14.97;;;2.60;97.30;;;;;;5021688;28;20467;-80
2021/03/05 00:14:49;;;;;;;46.77;15.40;;;2.70;97.30;;;;;;5021706;28;20287;-80
2021/03/05 00:17:15;;;;;;;47.93;16.37;;;2.70;97.30;;;;;;5022265;28;20181;-80
2021/03/05 00:19:41;;;;;;;40.63;15.20;;;2.70;97.30;;;;;;5021639;28;20235;-80
2021/03/05 00:22:07;;;;;;;46.53;16.13;;;2.70;97.30;;;;;;5022772;28;20189;-80
2021/03/05 00:24:34;;;;;;;44.30;15.03;;;2.70;97.30;;;;;;5020530;28;20660;-81
2021/03/05 00:27:00;;;;;;;49.40;16.10;;;2.70;97.30;;;;;;5020168;28;20413;-80
2021/03/05 00:29:26;;;;;;;50.10;16.33;;;2.80;97.30;;;;;;5021275;28;20412;-81
2021/03/05 00:31:51;;;;;;;40.97;15.80;;;2.80;97.30;;;;;;5020996;28;20479;-80
2021/03/05 00:34:17;;;;;;;39.57;15.47;;;2.80;97.30;;;;;;5002653;28;20197;-79
2021/03/05 00:36:43;;;;;;;43.07;14.50;;;2.80;97.30;;;;;;5003256;28;20188;-80
2021/03/05 00:39:09;;;;;;;40.77;14.47;;;2.80;97.30;;;;;;5003508;28;20183;-80
2021/03/05 00:41:35;;;;;;;47.07;15.60;;;2.80;97.30;;;;;;5003238;28;20660;-80
2021/03/05 00:44:02;;;;;;;44.00;14.90;;;2.90;97.30;;;;;;5002566;28;20447;-79
2021/03/05 00:46:28;;;;;;;41.87;14.40;;;2.90;97.30;;;;;;5003068;28;20521;-80
2021/03/05 00:48:54;;;;;;;39.43;14.10;;;2.90;97.30;;;;;;5021425;28;20890;-80
2021/03/05 00:51:20;;;;;;;45.83;15.93;;;2.90;97.30;;;;;;5002388;28;20184;-80
2021/03/05 00:53:45;;;;;;;50.23;16.10;;;2.90;97.30;;;;;;5002479;28;20208;-80
2021/03/05 00:56:13;;;;;;;40.67;14.00;;;2.90;97.30;;;;;;5018338;28;20416;-82
2021/03/05 00:58:39;;;;;;;37.37;13.67;;;2.90;97.30;;;;;;4999989;28;20177;-79
2021/03/05 01:01:05;;;;;;;28.97;12.53;;;3.00;97.30;;;;;;5018107;28;20419;-81
2021/03/05 01:03:31;;;;;;;39.03;14.10;;;3.00;97.30;;;;;;5001000;28;20217;-80
2021/03/05 01:05:57;;;;;;;45.27;13.97;;;3.00;97.30;;;;;;5000273;28;20512;-81
2021/03/05 01:08:23;;;;;;;37.10;12.63;;;3.00;97.30;;;;;;5000700;28;20471;-80
2021/03/05 01:10:48;;;;;;;34.97;13.60;;;3.00;97.30;;;;;;5000516;28;20515;-80
2021/03/05 01:13:14;;;;;;;41.73;14.67;;;3.00;97.30;;;;;;5000241;28;20200;-79
2021/03/05 01:15:40;;;;;;;42.27;15.60;;;3.00;97.30;;;;;;5005748;28;20236;-80
2021/03/05 01:18:06;;;;;;;38.10;14.47;;;3.00;97.30;;;;;;5016922;28;20196;-80
2021/03/05 01:20:31;;;;;;;41.20;15.03;;;3.00;97.30;;;;;;5016134;28;20215;-80
2021/03/05 01:22:57;;;;;;;33.83;13.53;;;3.00;97.30;;;;;;5018141;28;20447;-82
2021/03/05 01:25:25;;;;;;;35.97;14.20;;;3.00;97.30;;;;;;5021065;28;20192;-80
2021/03/05 01:27:51;;;;;;;38.37;14.40;;;3.00;97.30;;;;;;5021118;28;20180;-80
2021/03/05 01:30:18;;;;;;;37.97;14.00;;;3.00;97.30;;;;;;5021606;28;20511;-81
2021/03/05 01:32:44;;;;;;;44.57;14.43;;;3.00;97.30;;;;;;5024384;28;20553;-81
2021/03/05 01:35:12;;;;;;;40.80;14.80;;;3.00;97.30;;;;;;5023801;28;20941;-80
2021/03/05 01:37:38;;;;;;;40.73;14.40;;;3.00;97.30;;;;;;5023744;28;20426;-80
2021/03/05 01:40:07;;;;;;;30.03;13.33;;;3.00;97.30;;;;;;5023668;28;20491;-80
2021/03/05 01:42:33;;;;;;;39.50;14.10;;;3.00;97.30;;;;;;5023070;28;20420;-80
2021/03/05 01:44:58;;;;;;;31.97;13.10;;;3.00;97.30;;;;;;5041412;28;20461;-81
2021/03/05 01:47:24;;;;;;;39.60;14.00;;;3.10;97.30;;;;;;5011926;28;20219;-80
2021/03/05 01:49:50;;;;;;;41.13;14.73;;;3.00;97.30;;;;;;5006242;28;20165;-82
2021/03/05 01:52:16;;;;;;;37.70;12.60;;;3.00;97.30;;;;;;5014099;28;20460;-81
2021/03/05 01:54:42;;;;;;;39.47;13.17;;;3.00;97.30;;;;;;5005287;28;20482;-83
2021/03/05 01:57:07;;;;;;;31.00;13.23;;;3.00;97.30;;;;;;5006765;28;20185;-81
2021/03/05 01:59:33;;;;;;;31.03;12.40;;;3.00;97.30;;;;;;5004101;28;20185;-80
2021/03/05 02:02:08;;;;;;;36.57;13.17;;;3.00;97.30;;;;;;5004127;28;20487;-80
2021/03/05 02:04:35;;;;;;;34.13;12.37;;;3.00;97.30;;;;;;5000871;28;20255;-82
2021/03/05 02:07:03;;;;;;;26.70;11.17;;;2.90;97.30;;;;;;4998885;28;20429;-80
2021/03/05 02:09:29;;;;;;;34.27;11.97;;;2.90;97.30;;;;;;4997167;28;20964;-80
2021/03/05 02:11:54;;;;;;;23.47;10.10;;;2.90;97.30;;;;;;4996820;28;20567;-79
2021/03/05 02:14:22;;;;;;;27.37;10.53;;;2.90;97.30;;;;;;4998437;28;20197;-81
2021/03/05 02:16:56;;;;;;;27.50;11.17;;;2.80;97.30;;;;;;5023036;28;20169;-80
2021/03/05 02:19:51;;;;;;;29.10;10.97;;;2.80;97.30;;;;;;5004985;28;20484;-81
2021/03/05 02:22:44;;;;;;;32.53;11.03;;;2.80;97.30;;;;;;5006190;28;20424;-80
2021/03/05 02:25:40;;;;;;;30.93;11.47;;;2.80;97.30;;;;;;5005105;28;20475;-82
2021/03/05 02:28:27;;;;;;;29.30;10.80;;;2.80;97.30;;;;;;5020898;28;20486;-82
2021/03/05 02:31:13;;;;;;;30.17;11.17;;;2.80;97.30;;;;;;5002400;28;20468;-79
2021/03/05 02:33:48;;;;;;;39.60;12.00;;;2.70;97.30;;;;;;5013726;28;20986;-79
2021/03/05 02:36:20;;;;;;;36.70;11.53;;;2.70;97.30;;;;;;5014589;28;20411;-80
2021/03/05 02:39:22;;;;;;;35.00;12.70;;;2.70;97.30;;;;;;5014092;28;20412;-82
2021/03/05 02:41:54;;;;;;;38.63;12.30;;;2.70;97.30;;;;;;4961080;28;20416;-79
2021/03/05 02:44:25;;;;;;;39.70;12.03;;;2.70;97.30;;;;;;5014055;28;20484;-78
2021/03/05 02:46:56;;;;;;;29.97;10.97;;;2.70;97.30;;;;;;5013897;28;20420;-79
2021/03/05 02:49:24;;;;;;;39.53;13.07;;;2.70;97.30;;;;;;5014248;28;20949;-79
2021/03/05 02:51:50;;;;;;;29.53;10.97;;;2.70;97.30;;;;;;5014428;28;20547;-80
2021/03/05 02:54:17;;;;;;;30.80;12.03;;;2.70;97.30;;;;;;5015195;28;20432;-81
2021/03/05 02:56:46;;;;;;;33.27;11.90;;;2.70;97.30;;;;;;5016543;28;20419;-79
2021/03/05 02:59:13;;;;;;;36.50;11.93;;;2.70;97.30;;;;;;5015195;28;20778;-79
2021/03/05 03:01:45;;;;;;;47.90;13.57;;;2.70;97.30;;;;;;5016256;28;20531;-79
2021/03/05 03:04:12;;;;;;;38.20;13.50;;;2.60;97.30;;;;;;5015092;28;20547;-81
2021/03/05 03:06:38;;;;;;;37.20;12.77;;;2.60;97.30;;;;;;5015859;28;20416;-79
2021/03/05 03:09:05;;;;;;;45.67;12.57;;;2.60;97.30;;;;;;5014398;28;20412;-80
2021/03/05 03:11:33;;;;;;;33.33;11.13;;;2.60;97.30;;;;;;5015620;28;20435;-79
2021/03/05 03:14:00;;;;;;;32.30;12.80;;;2.60;97.30;;;;;;5014790;28;20432;-81
2021/03/05 03:16:27;;;;;;;39.67;13.00;;;2.60;97.30;;;;;;5014896;28;20424;-80
2021/03/05 03:18:54;;;;;;;39.60;12.53;;;2.60;97.30;;;;;;5015886;28;20836;-79
2021/03/05 03:21:20;;;;;;;32.83;12.27;;;2.60;97.30;;;;;;5018701;28;20430;-80
2021/03/05 03:23:46;;;;;;;37.77;12.63;;;2.60;97.30;;;;;;5020594;28;20443;-79
2021/03/05 03:26:12;;;;;;;31.97;12.07;;;2.60;97.30;;;;;;5020615;28;20424;-81
2021/03/05 03:28:38;;;;;;;33.63;11.40;;;2.60;97.30;;;;;;5020511;28;20181;-81
2021/03/05 03:31:05;;;;;;;27.90;12.37;;;2.60;97.30;;;;;;5019585;28;20231;-79
2021/03/05 03:33:31;;;;;;;35.23;11.23;;;2.60;97.30;;;;;;5019631;28;20452;-79
2021/03/05 03:36:01;;;;;;;29.77;10.70;;;2.70;97.30;;;;;;5019534;28;20420;-79
2021/03/05 03:38:29;;;;;;;27.90;11.43;;;2.70;97.30;;;;;;5020280;28;20420;-80
2021/03/05 03:40:55;;;;;;;27.77;11.50;;;2.60;97.30;;;;;;5019989;28;20411;-79
2021/03/05 03:43:20;;;;;;;29.73;10.70;;;2.60;97.30;;;;;;5020707;28;20408;-78
2021/03/05 03:45:46;;;;;;;36.47;11.90;;;2.60;97.30;;;;;;5018495;28;20424;-79
2021/03/05 03:48:13;;;;;;;24.07;11.20;;;2.60;97.30;;;;;;5018349;28;20185;-80
2021/03/05 03:50:45;;;;;;;34.50;10.67;;;2.60;97.30;;;;;;5019205;28;20608;-79
2021/03/05 03:53:13;;;;;;;25.80;10.87;;;2.60;97.30;;;;;;5017518;28;20458;-79
2021/03/05 03:55:39;;;;;;;28.40;11.67;;;2.60;97.30;;;;;;5018727;28;20428;-79
2021/03/05 03:58:06;;;;;;;28.53;11.70;;;2.60;97.30;;;;;;5017312;28;20435;-79
2021/03/05 04:00:34;;;;;;;33.10;11.27;;;2.60;97.30;;;;;;5017849;28;20815;-80
2021/03/05 04:03:03;;;;;;;34.27;11.07;;;2.60;97.30;;;;;;5015943;28;20952;-79
2021/03/05 04:05:33;;;;;;;34.43;12.47;;;2.60;97.30;;;;;;5039858;23;20513;-79
2021/03/05 04:08:03;;;;;;;27.30;10.40;;;2.60;97.30;;;;;;5035536;28;20455;-79
2021/03/05 04:10:29;;;;;;;27.17;10.67;;;2.60;97.30;;;;;;5036947;28;20918;-80
2021/03/05 04:12:56;;;;;;;29.60;10.50;;;2.50;97.30;;;;;;5036015;28;20458;-79
2021/03/05 04:15:23;;;;;;;28.50;11.00;;;2.50;97.30;;;;;;5019357;28;20448;-79
2021/03/05 04:17:48;;;;;;;32.80;12.40;;;2.50;97.30;;;;;;5016291;28;20419;-79
2021/03/05 04:20:16;;;;;;;30.37;11.20;;;2.50;97.30;;;;;;5016892;28;20420;-79
2021/03/05 04:22:43;;;;;;;23.00;10.33;;;2.50;97.30;;;;;;5016861;28;20217;-80
2021/03/05 04:25:11;;;;;;;29.10;10.13;;;2.50;97.30;;;;;;5018741;28;20432;-80
2021/03/05 04:27:37;;;;;;;22.40;9.43;;;2.40;97.30;;;;;;5016645;28;20507;-80
2021/03/05 04:30:03;;;;;;;34.07;10.57;;;2.40;97.30;;;;;;5016918;28;20965;-80
2021/03/05 04:32:31;;;;;;;26.53;10.37;;;2.50;97.30;;;;;;5017022;28;20207;-80
2021/03/05 04:34:56;;;;;;;32.07;10.40;;;2.40;97.30;;;;;;5016625;28;20436;-79
2021/03/05 04:37:22;;;;;;;26.30;10.70;;;2.50;97.30;;;;;;5017393;28;20466;-79
2021/03/05 04:39:48;;;;;;;27.83;10.53;;;2.40;97.30;;;;;;5015700;28;20273;-79
2021/03/05 04:42:13;;;;;;;29.70;11.00;;;2.40;97.30;;;;;;5017936;28;20279;-80
2021/03/05 04:44:39;;;;;;;26.23;10.33;;;2.40;97.30;;;;;;5016379;28;20201;-79
2021/03/05 04:47:04;;;;;;;25.50;10.80;;;2.40;97.30;;;;;;5016192;28;20181;-79
2021/03/05 04:49:30;;;;;;;30.73;10.60;;;2.40;97.30;;;;;;5015861;28;20181;-80
2021/03/05 04:51:55;;;;;;;25.87;9.33;;;2.40;97.30;;;;;;5015469;28;20295;-80
2021/03/05 04:54:22;;;;;;;29.10;11.67;;;2.40;97.30;;;;;;5015171;28;20199;-79
2021/03/05 04:56:48;;;;;;;23.50;10.07;;;2.40;97.30;;;;;;5015477;28;20402;-79
2021/03/05 04:59:13;;;;;;;30.30;10.60;;;2.40;97.30;;;;;;5015682;28;20502;-80
2021/03/05 05:01:39;;;;;;;24.40;9.03;;;2.40;97.30;;;;;;5016855;28;20173;-80
2021/03/05 05:04:05;;;;;;;27.73;10.43;;;2.40;97.30;;;;;;5015961;28;20581;-78
2021/03/05 05:06:30;;;;;;;26.17;10.33;;;2.30;97.30;;;;;;4998732;28;20215;-79
2021/03/05 05:08:56;;;;;;;26.87;11.57;;;2.30;97.30;;;;;;4997209;28;20215;-79
2021/03/05 05:11:40;;;;;;;26.93;10.97;;;2.30;97.30;;;;;;4997232;28;20173;-79
2021/03/05 05:14:05;;;;;;;24.77;11.30;;;2.30;97.30;;;;;;4996835;28;20207;-79
2021/03/05 05:16:31;;;;;;;24.60;10.27;;;2.20;97.30;;;;;;4998374;28;20444;-77
2021/03/05 05:18:57;;;;;;;28.67;9.60;;;2.20;97.30;;;;;;4997699;28;20231;-78
2021/03/05 05:21:22;;;;;;;27.43;10.63;;;2.20;97.30;;;;;;4997900;28;20205;-79
2021/03/05 05:23:53;;;;;;;24.87;9.50;;;2.20;97.30;;;;;;4997353;28;20494;-79
2021/03/05 05:26:19;;;;;;;24.90;9.60;;;2.20;97.30;;;;;;4997374;28;20499;-77
2021/03/05 05:28:45;;;;;;;28.23;11.27;;;2.10;97.30;;;;;;4997227;28;20533;-79
2021/03/05 05:31:10;;;;;;;24.07;9.93;;;2.10;97.30;;;;;;4997484;28;20176;-79
2021/03/05 05:33:36;;;;;;;27.73;11.20;;;2.10;97.30;;;;;;4997167;28;20671;-79
2021/03/05 05:36:01;;;;;;;25.03;10.70;;;2.10;97.30;;;;;;5014634;28;20201;-78
2021/03/05 05:38:27;;;;;;;27.23;10.77;;;2.00;97.30;;;;;;5018765;28;20178;-80
2021/03/05 05:40:53;;;;;;;27.17;10.73;;;2.00;97.30;;;;;;5001542;28;20224;-80
2021/03/05 05:43:18;;;;;;;24.13;9.87;;;2.00;97.30;;;;;;4999883;28;20193;-79
2021/03/05 05:45:45;;;;;;;23.40;10.10;;;2.00;97.30;;;;;;4993927;28;20719;-81
2021/03/05 05:48:19;;;;;;;26.90;11.23;;;2.00;97.30;;;;;;4994423;28;20661;-77
2021/03/05 05:50:46;;;;;;;27.97;10.00;;;1.90;97.30;;;;;;4996731;28;21019;-79
2021/03/05 05:53:13;;;;;;;24.60;10.10;;;1.90;97.30;;;;;;4997202;28;20985;-80
2021/03/05 05:55:39;;;;;;;24.47;9.40;;;1.80;97.30;;;;;;5003926;28;20493;-80
2021/03/05 05:58:05;;;;;;;21.87;9.10;;;1.70;97.30;;;;;;4989771;28;20416;-80
2021/03/05 06:00:31;;;;;;;20.53;9.00;;;1.70;97.30;;;;;;4998466;28;20436;-79
2021/03/05 06:02:57;;;;;;;21.00;10.57;;;1.60;97.30;;;;;;4988553;28;20738;-79
2021/03/05 06:05:23;;;;;;;24.53;9.93;;;1.50;97.30;;;;;;5009310;28;20479;-80
2021/03/05 06:07:49;;;;;;;27.67;9.67;;;1.50;97.30;;;;;;5015052;28;20440;-80
2021/03/05 06:10:15;;;;;;;22.10;9.13;;;1.40;97.30;;;;;;5016402;28;20185;-82
2021/03/05 06:12:41;;;;;;;23.23;9.17;;;1.40;97.30;;;;;;5020748;28;20491;-80
2021/03/05 06:15:10;;;;;;;27.27;10.23;;;1.40;97.30;;;;;;5010530;28;20201;-80
2021/03/05 06:17:50;;;;;;;24.87;9.87;;;1.40;97.30;;;;;;5005322;28;20552;-80
2021/03/05 06:20:17;;;;;;;22.50;10.20;;;1.30;97.30;;;;;;5003144;28;20416;-80
2021/03/05 06:22:43;;;;;;;25.90;9.70;;;1.30;97.30;;;;;;5000253;28;20436;-80
2021/03/05 06:25:11;;;;;;;22.23;9.60;;;1.30;97.30;;;;;;5001622;28;20885;-80
2021/03/05 06:27:38;;;;;;;23.27;10.00;;;1.30;97.30;;;;;;5014265;28;20424;-79
2021/03/05 06:30:07;;;;;;;28.67;9.87;;;1.30;97.30;;;;;;5012854;28;20421;-79
2021/03/05 06:32:41;;;;;;;26.10;9.57;;;1.20;97.30;;;;;;4996070;28;20480;-79
2021/03/05 06:35:09;;;;;;;21.40;9.60;;;1.30;97.30;;;;;;5009621;28;20443;-79
2021/03/05 06:38:01;;;;;;;23.57;9.50;;;1.20;97.30;;;;;;4995924;28;20442;-79
2021/03/05 06:40:26;;;;;;;23.30;9.80;;;1.20;97.30;;;;;;4996384;28;20943;-78
2021/03/05 06:42:55;;;;;;;22.97;8.93;;;1.20;97.30;;;;;;5002714;28;20419;-80
2021/03/05 06:45:25;;;;;;;24.33;9.03;;;1.10;97.30;;;;;;5006056;28;20243;-80
2021/03/05 06:48:09;;;;;;;24.83;10.23;;;1.10;97.30;;;;;;5005506;28;20438;-81
2021/03/05 06:50:42;;;;;;;23.97;8.43;;;1.10;97.30;;;;;;5004946;28;20428;-80
2021/03/05 06:53:21;;;;;;;27.03;8.37;;;1.10;97.30;;;;;;5002421;28;20491;-79
2021/03/05 06:55:47;;;;;;;22.67;7.50;;;1.10;97.30;;;;;;5007086;28;20413;-80
2021/03/05 06:58:13;;;;;;;19.87;7.73;;;1.10;97.30;;;;;;5006395;28;20439;-80
2021/03/05 07:00:38;;;;;;;26.83;8.70;;;1.10;97.30;;;;;;5004659;28;20177;-80
2021/03/05 07:03:23;;;;;;;23.03;9.33;;;1.10;97.30;;;;;;5005324;28;20180;-78
2021/03/05 07:05:50;;;;;;;26.03;8.80;;;1.20;97.30;;;;;;5007038;28;20216;-82
2021/03/05 07:08:37;;;;;;;23.03;8.23;;;1.20;97.30;;;;;;4984792;28;20425;-79
2021/03/05 07:11:03;;;;;;;19.20;8.37;;;1.20;97.30;;;;;;4984433;28;20420;-79
2021/03/05 07:13:46;;;;;;;25.13;7.53;;;1.30;97.30;;;;;;4988232;28;20487;-79
2021/03/05 07:16:11;;;;;;;19.63;7.80;;;1.30;97.30;;;;;;4989325;28;20484;-79
2021/03/05 07:18:37;;;;;;;30.70;8.67;;;1.40;97.30;;;;;;4991472;28;20452;-80
2021/03/05 07:21:03;;;;;;;21.57;7.70;;;1.40;97.30;;;;;;4991160;28;20568;-79
2021/03/05 07:23:30;;;;;;;21.97;7.87;;;1.50;97.30;;;;;;4985051;28;20271;-79
2021/03/05 07:25:56;;;;;;;22.33;8.50;;;1.50;97.30;;;;;;4987285;28;20437;-79
2021/03/05 07:28:24;;;;;;;22.60;7.60;;;1.50;97.30;;;;;;4988579;28;20431;-79
2021/03/05 07:30:52;;;;;;;26.47;8.37;;;1.60;97.30;;;;;;4989305;28;20185;-79
2021/03/05 07:33:23;;;;;;;18.77;7.30;;;1.70;97.30;;;;;;4991915;28;20460;-80
2021/03/05 07:35:51;;;;;;;21.27;8.57;;;1.80;97.30;;;;;;4992566;28;20421;-80
2021/03/05 07:38:23;;;;;;;22.80;7.63;;;1.80;97.30;;;;;;4992394;28;20406;-81
2021/03/05 07:40:49;;;;;;;21.43;7.80;;;1.90;97.30;;;;;;4994371;28;20473;-80
2021/03/05 07:43:15;;;;;;;17.73;8.20;;;2.00;97.30;;;;;;4988766;28;20449;-80
2021/03/05 07:45:41;;;;;;;20.63;7.33;;;2.00;97.30;;;;;;4990461;28;20494;-82
2021/03/05 07:48:11;;;;;;;20.60;7.20;;;2.00;97.30;;;;;;4991258;28;20188;-82
2021/03/05 07:50:38;;;;;;;13.67;6.13;;;2.00;97.30;;;;;;4994284;28;20178;-81
2021/03/05 07:53:04;;;;;;;15.63;7.67;;;2.00;97.30;;;;;;4998113;28;20447;-80
2021/03/05 07:55:44;;;;;;;19.53;6.97;;;2.00;97.30;;;;;;5005521;28;20452;-80
2021/03/05 07:58:32;;;;;;;16.60;6.07;;;2.10;97.30;;;;;;4989537;28;20443;-80
2021/03/05 08:00:58;;;;;;;16.60;5.70;;;2.10;97.30;;;;;;5010227;28;20447;-81
2021/03/05 08:03:24;;;;;;;15.50;6.43;;;2.20;97.30;;;;;;5009718;28;20789;-82
2021/03/05 08:05:50;;;;;;;16.30;6.13;;;2.30;97.30;;;;;;5014584;28;20228;-82
2021/03/05 08:08:27;;;;;;;17.07;5.60;;;2.40;97.30;;;;;;5024114;28;20550;-81
2021/03/05 08:11:02;;;;;;;15.40;6.23;;;2.50;97.30;;;;;;5025737;28;20438;-81
2021/03/05 08:13:52;;;;;;;13.30;5.20;;;2.50;97.30;;;;;;5031832;28;20458;-82
2021/03/05 08:16:29;;;;;;;9.80;5.50;;;2.50;97.30;;;;;;5003668;28;20427;-81
2021/03/05 08:19:04;;;;;;;14.83;5.93;;;2.60;97.30;;;;;;5021104;28;20438;-81
2021/03/05 08:21:52;;;;;;;12.67;5.10;;;2.70;97.30;;;;;;5017690;28;20451;-82
2021/03/05 08:24:38;;;;;;;13.00;5.70;;;2.80;97.30;;;;;;5005043;28;20436;-80
2021/03/05 08:27:05;;;;;;;14.07;5.20;;;2.90;97.30;;;;;;5021052;28;20817;-82
2021/03/05 08:30:01;;;;;;;13.83;5.30;;;3.00;97.30;;;;;;5020466;28;20423;-79
2021/03/05 08:32:33;;;;;;;14.10;5.17;;;3.00;97.30;;;;;;5020375;28;20470;-81
2021/03/05 08:35:00;;;;;;;11.37;5.10;;;3.00;97.30;;;;;;5021226;28;20519;-81
2021/03/05 08:37:27;;;;;;;9.20;5.80;;;3.10;97.30;;;;;;5020738;28;20416;-81
2021/03/05 08:40:21;;;;;;;9.23;4.63;;;3.20;97.30;;;;;;5021582;28;20423;-81
2021/03/05 08:42:48;;;;;;;9.40;5.10;;;3.30;97.30;;;;;;5015858;28;20427;-81
2021/03/05 08:45:18;;;;;;;7.83;4.10;;;3.20;97.30;;;;;;5015420;28;20440;-81
2021/03/05 08:47:57;;;;;;;9.33;3.90;;;3.20;97.30;;;;;;5006510;28;20443;-81
2021/03/05 08:50:32;;;;;;;7.90;4.27;;;3.20;97.30;;;;;;5004822;28;20437;-79
2021/03/05 08:53:04;;;;;;;9.93;4.13;;;3.30;97.30;;;;;;5005854;28;20460;-81
2021/03/05 08:55:35;;;;;;;9.00;3.60;;;3.40;97.30;;;;;;5003411;28;20488;-80
2021/03/05 08:58:02;;;;;;;6.50;3.53;;;3.40;97.30;;;;;;5001374;28;20492;-79
2021/03/05 09:00:32;;;;;;;8.27;4.50;;;3.40;97.30;;;;;;5005173;28;20408;-81
2021/03/05 09:03:12;;;;;;;6.57;3.57;;;3.40;97.30;;;;;;5004562;28;20912;-81
2021/03/05 09:05:41;;;;;;;6.40;3.83;;;3.40;97.30;;;;;;5006010;28;20464;-80
2021/03/05 09:08:09;;;;;;;8.70;4.20;;;3.50;97.30;;;;;;5000336;28;20557;-78
2021/03/05 09:11:03;;;;;;;10.27;3.83;;;3.70;97.30;;;;;;4988630;28;20501;-80
2021/03/05 09:13:31;;;;;;;8.20;3.30;;;3.80;97.30;;;;;;4987276;28;20473;-81
2021/03/05 09:16:04;;;;;;;8.43;3.60;;;3.90;97.30;;;;;;4989582;28;20448;-81
2021/03/05 09:18:33;;;;;;;6.67;3.90;;;4.00;97.30;;;;;;4990380;28;20417;-80
2021/03/05 09:21:01;;;;;;;11.10;4.53;;;4.00;95.50;;;;;;4988071;28;20471;-80
2021/03/05 09:23:29;;;;;;;7.10;3.90;;;4.00;95.20;;;;;;5004235;28;20451;-81
2021/03/05 09:25:58;;;;;;;7.30;3.53;;;4.10;96.50;;;;;;4987118;28;20429;-81
2021/03/05 09:28:34;;;;;;;8.40;3.77;;;4.00;93.50;;;;;;4986634;28;20428;-82
2021/03/05 09:30:59;;;;;;;6.00;3.40;;;4.10;94.50;;;;;;4987283;28;20507;-81
2021/03/05 09:33:27;;;;;;;6.17;2.93;;;4.30;95.50;;;;;;4980303;28;20551;-82
2021/03/05 09:35:58;;;;;;;5.60;2.73;;;4.30;94.60;;;;;;4988508;28;20181;-81
2021/03/05 09:38:24;;;;;;;5.33;2.97;;;4.30;93.40;;;;;;4987574;28;20429;-80
2021/03/05 09:40:50;;;;;;;10.57;3.03;;;4.40;92.60;;;;;;4984057;28;20471;-81
2021/03/05 09:43:17;;;;;;;3.67;2.77;;;4.40;93.40;;;;;;4986779;28;20671;-80
2021/03/05 09:45:49;;;;;;;6.13;3.13;;;4.60;92.70;;;;;;5004715;28;20676;-81
2021/03/05 09:48:32;;;;;;;3.37;2.70;;;4.70;92.50;;;;;;5003169;28;20439;-81
2021/03/05 09:51:00;;;;;;;5.30;2.30;;;4.70;90.80;;;;;;4998661;28;20432;-81
2021/03/05 09:53:30;;;;;;;4.30;2.50;;;4.70;89.70;;;;;;5005780;28;20546;-81
2021/03/05 09:55:59;;;;;;;5.40;2.70;;;4.80;89.80;;;;;;5024462;28;20422;-82
2021/03/05 09:58:25;;;;;;;5.33;2.80;;;4.90;89.80;;;;;;4999998;28;20474;-81
2021/03/05 10:00:54;;;;;;;3.73;2.80;;;5.00;89.50;;;;;;5021737;28;20412;-80
2021/03/05 10:03:20;;;;;;;7.97;2.83;;;5.00;89.00;;;;;;5018943;28;20212;-78
2021/03/05 10:05:46;;;;;;;3.93;2.57;;;5.10;89.80;;;;;;5014543;28;20486;-80
2021/03/05 10:08:13;;;;;;;4.30;2.83;;;5.10;88.20;;;;;;5019592;28;20428;-80
2021/03/05 10:10:56;;;;;;;3.53;2.40;;;5.00;87.70;;;;;;5018097;28;20419;-80
2021/03/05 10:13:37;;;;;;;8.27;3.00;;;4.90;87.80;;;;;;5020175;28;20478;-80
2021/03/05 10:16:13;;;;;;;4.87;2.63;;;5.10;88.00;;;;;;5014485;28;20941;-81
2021/03/05 10:18:40;;;;;;;5.23;2.80;;;5.30;88.10;;;;;;5020426;28;20483;-81
2021/03/05 10:21:10;;;;;;;6.43;3.00;;;5.40;86.50;;;;;;5013311;28;20420;-80
2021/03/05 10:23:37;;;;;;;5.50;3.20;;;5.20;86.10;;;;;;5019208;28;20424;-81
2021/03/05 10:26:11;;;;;;;4.03;2.50;;;5.10;86.00;;;;;;5013404;28;20465;-81
2021/03/05 10:28:36;;;;;;;8.47;2.67;;;5.20;86.50;;;;;;5013786;28;20416;-81
2021/03/05 10:31:04;;;;;;;6.37;2.90;;;5.40;87.40;;;;;;5014238;28;20466;-82
2021/03/05 10:33:44;;;;;;;5.90;3.03;;;5.50;88.10;;;;;;5015004;28;20197;-81
2021/03/05 10:36:13;;;;;;;4.50;2.50;;;5.80;88.90;;;;;;5020732;28;20416;-79
2021/03/05 10:38:40;;;;;;;5.37;3.00;;;5.90;86.80;;;;;;5016355;28;20416;-81
2021/03/05 10:41:06;;;;;;;5.23;3.03;;;6.00;86.60;;;;;;5026032;28;20539;-82
2021/03/05 10:43:39;;;;;;;5.63;2.60;;;5.80;86.70;;;;;;5026268;28;20416;-82
2021/03/05 10:46:05;;;;;;;4.97;2.90;;;5.70;87.40;;;;;;5015571;28;20942;-81
2021/03/05 10:48:30;;;;;;;5.43;2.57;;;5.50;87.40;;;;;;5016731;28;20440;-81
2021/03/05 10:50:56;;;;;;;3.80;2.37;;;5.50;87.70;;;;;;5017064;28;20263;-79
2021/03/05 10:53:22;;;;;;;12.27;3.50;;;5.60;86.00;;;;;;5014970;28;20204;-80
2021/03/05 10:55:48;;;;;;;4.60;2.20;;;5.60;86.30;;;;;;5013112;28;20954;-81
2021/03/05 10:58:13;;;;;;;3.27;2.30;;;5.80;85.90;;;;;;5013475;28;20656;-80
2021/03/05 11:00:39;;;;;;;2.67;2.30;;;5.70;84.50;;;;;;5013708;28;20536;-82
2021/03/05 11:03:05;;;;;;;4.50;2.80;;;5.60;84.50;;;;;;5013021;28;20177;-81
2021/03/05 11:05:30;;;;;;;4.47;2.70;;;5.50;85.10;;;;;;5016826;28;20251;-81
2021/03/05 11:07:56;;;;;;;6.50;2.70;;;5.60;86.30;;;;;;5017410;28;20431;-81
2021/03/05 11:10:23;;;;;;;5.67;2.47;;;6.00;85.40;;;;;;5016663;28;20185;-81
2021/03/05 11:12:49;;;;;;;6.10;2.50;;;6.20;84.30;;;;;;5016251;28;20227;-81
2021/03/05 11:15:16;;;;;;;2.23;2.03;;;6.30;84.70;;;;;;5017820;28;20444;-81
2021/03/05 11:17:43;;;;;;;2.57;1.97;;;6.20;83.00;;;;;;5014191;28;20177;-77
2021/03/05 11:20:10;;;;;;;4.33;2.27;;;5.80;81.00;;;;;;5011382;28;20439;-79
2021/03/05 11:22:36;;;;;;;4.20;1.83;;;5.50;83.10;;;;;;5010246;28;20514;-78
2021/03/05 11:25:03;;;;;;;5.10;2.13;;;5.30;81.90;;;;;;5010188;28;20875;-79
2021/03/05 11:27:29;;;;;;;2.70;1.67;;;5.20;83.30;;;;;;5010317;28;20190;-79
2021/03/05 11:29:54;;;;;;;4.63;2.17;;;5.20;82.20;;;;;;5012591;28;20903;-78
2021/03/05 11:32:20;;;;;;;2.80;1.60;;;5.10;82.80;;;;;;5009971;28;20244;-79
2021/03/05 11:34:45;;;;;;;1.50;1.43;;;5.20;81.80;;;;;;5008662;28;20588;-79
2021/03/05 11:37:11;;;;;;;3.40;1.87;;;5.40;82.40;;;;;;5010164;28;20212;-79
2021/03/05 11:39:36;;;;;;;2.13;1.63;;;5.70;81.20;;;;;;5009012;28;20173;-76
2021/03/05 11:42:06;;;;;;;2.30;1.90;;;6.10;81.00;;;;;;5007366;28;20182;-77
2021/03/05 11:44:31;;;;;;;3.37;1.90;;;6.50;80.30;;;;;;5009602;28;20216;-77
2021/03/05 11:46:59;;;;;;;2.50;1.87;;;6.90;80.50;;;;;;5013273;28;20424;-77
2021/03/05 11:49:25;;;;;;;2.80;1.80;;;7.30;80.50;;;;;;5005412;28;20465;-78
2021/03/05 11:51:50;;;;;;;3.47;1.90;;;7.40;76.50;;;;;;5004071;28;20854;-77
2021/03/05 11:54:16;;;;;;;2.50;1.80;;;7.20;77.00;;;;;;4995999;28;20198;-80
2021/03/05 11:56:42;;;;;;;2.70;2.33;;;6.80;77.20;;;;;;5002421;28;20178;-80
2021/03/05 11:59:07;;;;;;;3.20;2.10;;;6.40;78.80;;;;;;5001940;28;20203;-78
2021/03/05 12:01:34;;;;;;;2.30;1.90;;;6.10;78.90;;;;;;5004540;28;20170;-79
2021/03/05 12:03:59;;;;;;;3.73;1.97;;;6.00;79.10;;;;;;5003950;28;20304;-78
2021/03/05 12:06:28;;;;;;;2.43;2.03;;;6.20;79.10;;;;;;4984801;28;20558;-80
2021/03/05 12:08:54;;;;;;;4.93;1.90;;;6.40;78.60;;;;;;4988757;28;20185;-78
2021/03/05 12:11:20;;;;;;;6.40;2.27;;;6.70;78.20;;;;;;5004951;28;20417;-79
2021/03/05 12:13:46;;;;;;;3.27;2.07;;;7.00;79.10;;;;;;5002738;28;20864;-79
2021/03/05 12:16:12;;;;;;;3.90;2.07;;;7.40;81.10;;;;;;5000680;28;20187;-79
2021/03/05 12:18:38;;;;;;;3.30;2.50;;;7.70;78.90;;;;;;5003183;28;20404;-79
2021/03/05 12:21:04;;;;;;;3.53;2.30;;;7.70;78.20;;;;;;4987785;28;20268;-79
2021/03/05 12:23:30;;;;;;;4.10;2.50;;;7.70;78.30;;;;;;4985500;28;20225;-79
2021/03/05 12:25:55;;;;;;;4.43;2.30;;;7.90;78.10;;;;;;5005299;28;20417;-79
2021/03/05 12:28:21;;;;;;;3.07;2.17;;;7.90;77.60;;;;;;4984675;28;20421;-79
2021/03/05 12:30:46;;;;;;;5.43;2.10;;;8.00;76.50;;;;;;4986125;28;20204;-79
2021/03/05 12:33:12;;;;;;;4.60;2.30;;;7.90;75.20;;;;;;4987504;28;20232;-78
2021/03/05 12:35:38;;;;;;;3.47;2.10;;;8.10;75.50;;;;;;5004511;28;20211;-78
2021/03/05 12:38:04;;;;;;;2.93;2.27;;;8.60;76.60;;;;;;4984815;28;20791;-79
2021/03/05 12:40:32;;;;;;;4.33;2.40;;;8.60;74.50;;;;;;5003409;28;20172;-79
2021/03/05 12:42:57;;;;;;;4.33;2.70;;;8.10;77.50;;;;;;5013691;28;20412;-79
2021/03/05 12:45:24;;;;;;;4.03;2.60;;;7.50;80.40;;;;;;4996606;28;20477;-79
2021/03/05 12:47:52;;;;;;;6.10;2.77;;;6.90;79.90;;;;;;4982719;28;20244;-78
2021/03/05 12:50:21;;;;;;;4.80;3.40;;;6.50;82.00;;;;;;4992543;28;20429;-79
2021/03/05 12:52:50;;;;;;;3.70;2.17;;;6.20;81.10;;;;;;4986025;28;20990;-79